createdAt,value
2022-11-02T00:01:14.448Z,50.10
2022-11-02T00:03:41.261Z,46.08
2022-11-02T00:06:07.893Z,42.38
2022-11-02T00:08:34.795Z,41.92
2022-11-02T00:11:01.449Z,45.75
2022-11-02T00:13:28.162Z,41.42
2022-11-02T00:15:55.475Z,41.25
2022-11-02T00:18:22.552Z,45.95
2022-11-02T00:20:49.497Z,53.95
2022-11-02T00:23:16.343Z,55.10
2022-11-02T00:25:47.840Z,54.88
2022-11-02T00:28:15.592Z,54.10
2022-11-02T00:30:43.231Z,62.92
2022-11-02T00:33:09.976Z,59.42
2022-11-02T00:35:37.052Z,59.58
2022-11-02T00:38:04.296Z,67.00
2022-11-02T00:40:31.359Z,69.32
2022-11-02T00:42:58.207Z,66.72
2022-11-02T00:45:25.182Z,67.50
2022-11-02T00:47:51.927Z,70.57
2022-11-02T00:50:18.597Z,75.30
2022-11-02T00:52:45.364Z,71.07
2022-11-02T00:55:12.563Z,70.75
2022-11-02T00:57:40.359Z,71.65
2022-11-02T01:00:10.085Z,72.30
2022-11-02T01:02:37.495Z,68.63
2022-11-02T01:05:05.437Z,77.20
2022-11-02T01:07:32.280Z,85.70
2022-11-02T01:09:59.051Z,90.40
2022-11-02T01:12:26.089Z,99.07
2022-11-02T01:14:52.808Z,97.53
2022-11-02T01:17:19.652Z,101.15
2022-11-02T01:19:46.371Z,92.95
2022-11-02T01:22:13.338Z,105.93
2022-11-02T01:24:40.117Z,100.57
2022-11-02T01:27:06.815Z,102.95
2022-11-02T01:29:33.498Z,103.88
2022-11-02T01:32:00.167Z,96.65
2022-11-02T01:34:26.839Z,97.38
2022-11-02T01:36:53.628Z,97.22
2022-11-02T01:39:20.459Z,105.28
2022-11-02T01:41:51.440Z,94.85
2022-11-02T01:44:36.343Z,93.03
2022-11-02T01:47:11.550Z,94.95
2022-11-02T01:49:42.483Z,97.53
2022-11-02T01:52:16.262Z,90.97
2022-11-02T01:54:53.662Z,87.72
2022-11-02T01:57:22.278Z,86.20
2022-11-02T01:59:57.276Z,73.72
2022-11-02T02:02:25.875Z,72.55
2022-11-02T02:04:58.273Z,74.88
2022-11-02T02:07:26.279Z,73.25
2022-11-02T02:09:53.482Z,66.07
2022-11-02T02:12:21.267Z,77.65
2022-11-02T02:14:48.012Z,64.03
2022-11-02T02:17:20.809Z,66.80
2022-11-02T02:20:06.234Z,69.65
2022-11-02T02:23:06.024Z,69.20
2022-11-02T02:25:38.320Z,67.03
2022-11-02T02:28:41.354Z,58.20
2022-11-02T02:31:31.933Z,60.13
2022-11-02T02:34:15.552Z,54.28
2022-11-02T02:37:10.189Z,54.30
2022-11-02T02:39:57.611Z,56.70
2022-11-02T02:42:36.838Z,54.42
2022-11-02T02:45:26.800Z,56.45
2022-11-02T02:48:04.806Z,48.17
2022-11-02T02:50:45.146Z,47.08
2022-11-02T02:53:14.408Z,50.72
2022-11-02T02:55:45.535Z,54.42
2022-11-02T02:58:20.937Z,52.22
2022-11-02T03:00:47.749Z,50.63
2022-11-02T03:03:20.128Z,45.90
2022-11-02T03:06:15.268Z,49.58
2022-11-02T03:08:47.970Z,44.35
2022-11-02T03:11:17.193Z,52.58
2022-11-02T03:14:18.737Z,49.42
2022-11-02T03:17:14.129Z,41.60
2022-11-02T03:19:57.914Z,37.28
2022-11-02T03:22:51.933Z,39.30
2022-11-02T03:25:24.635Z,37.22
2022-11-02T03:27:55.704Z,33.50
2022-11-02T03:30:24.451Z,33.85
2022-11-02T03:33:07.752Z,34.85
2022-11-02T03:35:42.882Z,28.92
2022-11-02T03:38:37.947Z,35.03
2022-11-02T03:41:06.473Z,33.22
2022-11-02T03:43:36.219Z,35.80
2022-11-02T03:46:06.097Z,33.83
2022-11-02T03:48:38.514Z,37.80
2022-11-02T03:51:10.358Z,31.77
2022-11-02T03:54:06.417Z,34.03
2022-11-02T03:56:38.405Z,34.22
2022-11-02T03:59:05.168Z,35.30
2022-11-02T04:01:38.031Z,39.70
2022-11-02T04:04:05.119Z,37.80
2022-11-02T04:06:32.262Z,40.20
2022-11-02T04:08:59.971Z,35.63
2022-11-02T04:11:46.208Z,41.25
2022-11-02T04:14:31.570Z,32.63
2022-11-02T04:17:17.126Z,43.20
2022-11-02T04:19:47.030Z,39.50
2022-11-02T04:22:35.171Z,37.88
2022-11-02T04:25:20.204Z,33.00
2022-11-02T04:27:52.607Z,36.47
2022-11-02T04:30:23.085Z,35.97
2022-11-02T04:33:10.253Z,39.58
2022-11-02T04:35:37.734Z,37.42
2022-11-02T04:38:23.164Z,45.72
2022-11-02T04:41:09.779Z,44.10
2022-11-02T04:43:36.444Z,41.13
2022-11-02T04:46:03.114Z,47.47
2022-11-02T04:48:29.806Z,43.85
2022-11-02T04:50:58.469Z,42.08
2022-11-02T04:53:25.149Z,39.47
2022-11-02T04:55:51.793Z,37.47
2022-11-02T04:58:18.472Z,43.47
2022-11-02T05:00:45.130Z,42.88
2022-11-02T05:03:12.633Z,38.70
2022-11-02T05:05:39.768Z,42.80
2022-11-02T05:08:06.928Z,45.38
2022-11-02T05:10:34.024Z,44.60
2022-11-02T05:13:01.118Z,41.05
2022-11-02T05:15:28.245Z,39.28
2022-11-02T05:17:55.169Z,46.20
2022-11-02T05:20:22.612Z,40.30
2022-11-02T05:22:49.293Z,43.15
2022-11-02T05:25:16.094Z,40.20
2022-11-02T05:27:42.818Z,40.60
2022-11-02T05:30:10.086Z,38.08
2022-11-02T05:32:36.777Z,47.22
2022-11-02T05:35:04.307Z,46.05
2022-11-02T05:37:30.997Z,43.28
2022-11-02T05:39:58.666Z,44.08
2022-11-02T05:42:26.130Z,46.65
2022-11-02T05:44:52.861Z,41.50
2022-11-02T05:47:19.622Z,53.58
2022-11-02T05:49:46.568Z,44.63
2022-11-02T05:52:13.230Z,46.90
2022-11-02T05:54:39.935Z,47.42
2022-11-02T05:57:07.031Z,43.33
2022-11-02T05:59:33.798Z,47.05
2022-11-02T06:02:00.624Z,47.42
2022-11-02T06:04:27.377Z,53.65
2022-11-02T06:06:54.034Z,59.72
2022-11-02T06:09:20.690Z,57.95
2022-11-02T06:11:47.706Z,56.72
2022-11-02T06:14:14.351Z,58.47
2022-11-02T06:16:41.026Z,54.97
2022-11-02T06:19:07.896Z,53.03
2022-11-02T06:21:34.587Z,54.20
2022-11-02T06:24:01.230Z,53.33
2022-11-02T06:26:27.940Z,59.75
2022-11-02T06:28:54.578Z,58.05
2022-11-02T06:31:21.310Z,67.10
2022-11-02T06:33:48.110Z,72.78
2022-11-02T06:36:14.878Z,70.57
2022-11-02T06:38:42.056Z,68.28
2022-11-02T06:41:10.795Z,75.57
2022-11-02T06:43:38.468Z,64.28
2022-11-02T06:46:06.282Z,68.78
2022-11-02T06:48:35.250Z,85.93
2022-11-02T06:51:03.932Z,74.13
2022-11-02T06:53:31.025Z,83.68
2022-11-02T06:55:59.420Z,75.53
2022-11-02T06:58:26.689Z,82.35
2022-11-02T07:01:01.705Z,79.47
2022-11-02T07:03:29.721Z,83.72
2022-11-02T07:05:56.897Z,83.20
2022-11-02T07:08:24.162Z,92.45
2022-11-02T07:10:50.985Z,87.57
2022-11-02T07:13:18.016Z,89.90
2022-11-02T07:15:44.761Z,87.20
2022-11-02T07:18:12.497Z,91.18
2022-11-02T07:20:39.589Z,86.72
2022-11-02T07:23:06.970Z,83.35
2022-11-02T07:25:33.985Z,89.22
2022-11-02T07:28:02.235Z,88.22
2022-11-02T07:30:30.271Z,86.75
2022-11-02T07:32:56.965Z,87.57
2022-11-02T07:35:23.675Z,95.30
2022-11-02T07:37:58.662Z,86.75
2022-11-02T07:40:25.667Z,85.05
2022-11-02T07:42:53.997Z,87.68
2022-11-02T07:45:22.206Z,85.03
2022-11-02T07:47:49.798Z,84.63
2022-11-02T07:50:19.035Z,80.53
2022-11-02T07:52:50.562Z,85.18
2022-11-02T07:55:19.984Z,79.40
2022-11-02T07:57:57.330Z,87.20
2022-11-02T08:00:26.261Z,83.35
2022-11-02T08:02:57.040Z,87.28
2022-11-02T08:05:24.859Z,87.68
2022-11-02T08:07:59.700Z,84.90
2022-11-02T08:10:27.669Z,84.03
2022-11-02T08:12:55.314Z,80.57
2022-11-02T08:15:22.076Z,73.35
2022-11-02T08:17:59.289Z,82.72
2022-11-02T08:20:25.883Z,75.15
2022-11-02T08:22:52.533Z,68.05
2022-11-02T08:25:19.305Z,75.65
2022-11-02T08:27:45.938Z,77.57
2022-11-02T08:30:13.050Z,78.82
2022-11-02T08:32:39.749Z,76.15
2022-11-02T08:35:06.993Z,78.32
2022-11-02T08:37:33.671Z,74.28
2022-11-02T08:40:00.680Z,69.55
2022-11-02T08:42:27.334Z,80.88
2022-11-02T08:44:54.102Z,82.20
2022-11-02T08:47:21.731Z,83.68
2022-11-02T08:49:48.402Z,74.45
2022-11-02T08:52:15.085Z,58.97
2022-11-02T08:54:41.867Z,54.88
2022-11-02T08:57:08.521Z,55.92
2022-11-02T08:59:35.300Z,50.60
2022-11-02T09:02:02.200Z,46.47
2022-11-02T09:04:28.937Z,46.92
2022-11-02T09:06:55.604Z,40.42
2022-11-02T09:09:22.351Z,38.67
2022-11-02T09:11:50.679Z,46.85
2022-11-02T09:14:17.591Z,41.20
2022-11-02T09:16:44.614Z,36.17
2022-11-02T09:19:11.251Z,38.05
2022-11-02T09:21:38.052Z,42.03
2022-11-02T09:24:05.241Z,46.17
2022-11-02T09:26:31.890Z,38.55
2022-11-02T09:28:58.549Z,40.65
2022-11-02T09:31:25.276Z,39.47
2022-11-02T09:33:51.985Z,41.15
2022-11-02T09:36:18.649Z,41.35
2022-11-02T09:38:45.368Z,39.60
2022-11-02T09:41:28.009Z,42.45
2022-11-02T09:44:18.125Z,44.38
2022-11-02T09:46:46.818Z,45.60
2022-11-02T09:49:25.723Z,44.75
2022-11-02T09:51:55.958Z,44.53
2022-11-02T09:54:42.006Z,48.72
2022-11-02T09:57:16.611Z,43.15
2022-11-02T09:59:43.504Z,41.53
2022-11-02T10:02:28.411Z,38.65
2022-11-02T10:05:27.921Z,39.72
2022-11-02T10:08:15.787Z,45.85
2022-11-02T10:10:49.042Z,40.58
2022-11-02T10:13:45.056Z,39.30
2022-11-02T10:16:33.615Z,39.95
2022-11-02T10:19:02.584Z,31.15
2022-11-02T10:21:38.048Z,31.75
2022-11-02T10:26:43.318Z,25.92
2022-11-02T10:29:18.532Z,19.40
2022-11-02T10:31:45.979Z,29.33
2022-11-02T10:34:28.498Z,29.85
2022-11-02T10:37:46.838Z,24.95
2022-11-02T10:40:42.198Z,22.95
2022-11-02T10:43:30.328Z,35.05
2022-11-02T10:46:27.694Z,29.95
2022-11-02T10:49:14.696Z,27.75
2022-11-02T10:51:41.617Z,24.40
2022-11-02T10:54:21.605Z,33.08
2022-11-02T10:56:56.759Z,31.05
2022-11-02T10:59:24.416Z,25.27
2022-11-02T11:01:57.283Z,24.08
2022-11-02T11:04:28.908Z,27.30
2022-11-02T11:06:56.988Z,25.55
2022-11-02T11:09:30.780Z,30.33
2022-11-02T11:12:03.158Z,27.85
2022-11-02T11:20:39.051Z,26.98
2022-11-02T11:23:24.018Z,37.05
2022-11-02T11:25:58.380Z,39.17
2022-11-02T11:28:32.679Z,44.97
2022-11-02T11:31:05.388Z,46.50
2022-11-02T11:33:33.849Z,46.70
2022-11-02T11:36:01.058Z,47.05
2022-11-02T11:38:28.178Z,52.80
2022-11-02T11:40:58.457Z,53.20
2022-11-02T11:43:35.114Z,53.22
2022-11-02T11:46:06.752Z,51.97
2022-11-02T11:48:39.595Z,56.50
2022-11-02T11:51:26.599Z,51.67
2022-11-02T11:54:14.087Z,55.75
2022-11-02T11:56:40.805Z,61.55
2022-11-02T11:59:21.198Z,55.17
2022-11-02T12:01:48.548Z,55.75
2022-11-02T12:04:31.059Z,48.22
2022-11-02T12:07:19.053Z,46.22
2022-11-02T12:10:04.467Z,45.78
2022-11-02T12:12:41.409Z,43.78
2022-11-02T12:15:11.078Z,40.40
2022-11-02T12:17:49.927Z,42.60
2022-11-02T12:20:39.886Z,38.20
2022-11-02T12:23:54.906Z,41.30
2022-11-02T12:26:30.813Z,45.95
2022-11-02T12:29:15.659Z,41.38
2022-11-02T12:32:00.636Z,40.88
2022-11-02T12:34:39.886Z,46.00
2022-11-02T12:37:41.224Z,46.03
2022-11-02T12:40:45.270Z,53.83
2022-11-02T12:43:32.436Z,47.47
2022-11-02T12:46:04.205Z,47.17
2022-11-02T12:48:46.398Z,46.70
2022-11-02T12:51:18.072Z,50.78
2022-11-02T12:53:53.615Z,47.85
2022-11-02T12:56:38.072Z,47.45
2022-11-02T12:59:05.141Z,41.65
2022-11-02T13:01:41.011Z,109.50
2022-11-02T13:04:35.462Z,108.35
2022-11-02T13:07:12.420Z,47.58
2022-11-02T13:10:02.498Z,53.00
2022-11-02T13:12:32.322Z,45.28
2022-11-02T13:15:00.932Z,46.97
2022-11-02T13:17:49.089Z,53.65
2022-11-02T13:20:21.732Z,51.35
2022-11-02T13:23:14.630Z,62.60
2022-11-02T13:25:48.473Z,48.95
2022-11-02T13:28:38.754Z,55.63
2022-11-02T13:31:12.889Z,51.42
2022-11-02T13:33:53.963Z,59.90
2022-11-02T13:36:20.853Z,59.88
2022-11-02T13:38:56.591Z,55.10
2022-11-02T13:42:02.355Z,64.40
2022-11-02T13:44:55.772Z,60.50
2022-11-02T13:47:51.053Z,51.08
2022-11-02T13:50:22.186Z,48.53
2022-11-02T13:52:59.890Z,50.03
2022-11-02T13:55:46.168Z,49.80
2022-11-02T13:58:26.458Z,48.25
2022-11-02T14:00:59.028Z,52.40
2022-11-02T14:03:48.067Z,53.42
2022-11-02T14:06:17.350Z,49.45
2022-11-02T14:09:01.779Z,46.90
2022-11-02T14:11:36.847Z,47.95
2022-11-02T14:14:04.153Z,49.75
2022-11-02T14:16:43.176Z,44.33
2022-11-02T14:19:45.336Z,42.78
2022-11-02T14:22:17.431Z,43.75
2022-11-02T14:24:48.225Z,40.05
2022-11-02T14:27:19.185Z,40.03
2022-11-02T14:29:45.879Z,41.42
2022-11-02T14:32:21.740Z,42.03
2022-11-02T14:35:04.371Z,42.08
2022-11-02T14:37:49.322Z,38.42
2022-11-02T14:40:29.482Z,41.97
2022-11-02T14:43:07.475Z,41.38
2022-11-02T14:45:38.602Z,44.88
2022-11-02T14:48:06.861Z,42.15
2022-11-02T14:50:34.301Z,35.35
2022-11-02T14:53:08.672Z,34.45
2022-11-02T14:55:38.727Z,38.33
2022-11-02T14:58:20.320Z,36.15
2022-11-02T15:00:49.992Z,30.38
2022-11-02T15:03:26.113Z,34.78
2022-11-02T15:06:14.906Z,35.38
2022-11-02T15:08:58.213Z,29.80
2022-11-02T15:11:46.948Z,32.50
2022-11-02T15:14:35.677Z,29.48
2022-11-02T15:17:12.459Z,31.00
2022-11-02T15:19:47.093Z,33.00
2022-11-02T15:22:54.779Z,29.10
2022-11-02T15:25:25.290Z,30.75
2022-11-02T15:27:55.535Z,30.60
2022-11-02T15:30:28.053Z,27.77
2022-11-02T15:33:06.590Z,28.15
2022-11-02T15:35:37.017Z,30.58
2022-11-02T15:38:25.796Z,29.42
2022-11-02T15:41:06.123Z,30.23
2022-11-02T15:44:24.792Z,25.20
2022-11-02T15:47:15.560Z,26.35
2022-11-02T15:50:19.524Z,25.95
2022-11-02T15:53:23.192Z,29.65
2022-11-02T15:56:28.274Z,29.00
2022-11-02T15:59:40.141Z,30.85
2022-11-02T16:02:24.113Z,31.35
2022-11-02T16:04:57.029Z,26.52
2022-11-02T16:07:33.220Z,31.58
2022-11-02T16:10:22.997Z,30.33
2022-11-02T16:13:11.672Z,33.47
2022-11-02T16:15:42.225Z,38.17
2022-11-02T16:18:42.336Z,30.95
2022-11-02T16:21:16.731Z,32.92
2022-11-02T16:23:53.214Z,35.50
2022-11-02T16:26:22.674Z,26.60
2022-11-02T16:28:55.046Z,28.23
2022-11-02T16:31:31.246Z,33.38
2022-11-02T16:34:05.281Z,30.20
2022-11-02T16:36:36.522Z,28.17
2022-11-02T16:39:30.210Z,30.40
2022-11-02T16:42:00.309Z,28.58
2022-11-02T16:44:32.075Z,33.30
2022-11-02T16:47:00.595Z,31.77
2022-11-02T16:49:28.628Z,33.60
2022-11-02T16:52:00.846Z,35.75
2022-11-02T16:54:43.350Z,36.25
2022-11-02T16:57:18.634Z,31.17
2022-11-02T16:59:57.164Z,34.30
2022-11-02T17:02:37.544Z,36.75
2022-11-02T17:05:26.758Z,30.95
2022-11-02T17:08:09.422Z,29.08
2022-11-02T17:10:38.537Z,29.95
2022-11-02T17:13:17.148Z,31.60
2022-11-02T17:15:51.714Z,32.17
2022-11-02T17:18:21.408Z,29.33
2022-11-02T17:21:08.552Z,36.53
2022-11-02T17:23:36.743Z,32.78
2022-11-02T17:26:22.315Z,32.65
2022-11-02T17:28:55.257Z,32.42
2022-11-02T17:31:35.811Z,34.38
2022-11-02T17:34:09.939Z,35.83
2022-11-02T17:36:44.705Z,35.03
2022-11-02T17:39:16.053Z,33.92
2022-11-02T17:42:02.302Z,34.22
2022-11-02T17:44:28.957Z,36.60
2022-11-02T17:46:56.146Z,31.95
2022-11-02T17:49:22.879Z,35.03
2022-11-02T17:51:49.603Z,40.45
2022-11-02T17:54:16.512Z,37.03
2022-11-02T17:56:43.401Z,37.17
2022-11-02T17:59:10.473Z,35.38
2022-11-02T18:01:37.428Z,35.72
2022-11-02T18:04:04.320Z,34.40
2022-11-02T18:06:31.128Z,35.40
2022-11-02T18:09:15.284Z,38.65
2022-11-02T18:11:42.139Z,39.92
2022-11-02T18:14:14.024Z,40.58
2022-11-02T18:16:41.144Z,36.08
2022-11-02T18:19:08.321Z,36.05
2022-11-02T18:21:35.091Z,43.65
2022-11-02T18:24:01.814Z,39.20
2022-11-02T18:26:28.512Z,41.72
2022-11-02T18:28:55.205Z,41.17
2022-11-02T18:31:21.931Z,37.30
2022-11-02T18:33:48.658Z,41.25
2022-11-02T18:36:15.317Z,39.03
2022-11-02T18:38:42.374Z,41.85
2022-11-02T18:41:29.638Z,34.80
2022-11-02T18:44:04.946Z,42.38
2022-11-02T18:46:34.897Z,39.15
2022-11-02T18:49:02.628Z,36.90
2022-11-02T18:51:29.484Z,38.83
2022-11-02T18:54:04.232Z,39.15
2022-11-02T18:56:31.321Z,41.75
2022-11-02T18:58:58.209Z,38.60
2022-11-02T19:01:26.224Z,38.17
2022-11-02T19:03:55.469Z,41.22
2022-11-02T19:06:41.926Z,43.53
2022-11-02T19:09:20.483Z,34.67
2022-11-02T19:11:52.406Z,37.45
2022-11-02T19:14:20.196Z,39.35
2022-11-02T19:16:47.468Z,39.50
2022-11-02T19:19:14.197Z,44.22
2022-11-02T19:21:41.163Z,39.83
2022-11-02T19:24:08.706Z,43.35
2022-11-02T19:26:36.176Z,41.97
2022-11-02T19:29:06.270Z,44.72
2022-11-02T19:31:34.779Z,38.05
2022-11-02T19:34:01.655Z,39.83
2022-11-02T19:36:28.416Z,38.70
2022-11-02T19:38:55.134Z,40.92
2022-11-02T19:41:22.347Z,42.03
2022-11-02T19:43:48.995Z,39.83
2022-11-02T19:46:18.577Z,42.22
2022-11-02T19:48:45.597Z,40.97
2022-11-02T19:51:23.990Z,40.20
2022-11-02T19:53:56.126Z,42.15
2022-11-02T19:56:23.123Z,44.40
2022-11-02T19:58:51.643Z,42.35
2022-11-02T20:01:22.473Z,45.58
2022-11-02T20:03:50.071Z,47.08
2022-11-02T20:06:28.730Z,55.25
2022-11-02T20:08:57.351Z,57.00
2022-11-02T20:11:27.314Z,53.63
2022-11-02T20:13:54.354Z,57.22
2022-11-02T20:16:21.246Z,64.13
2022-11-02T20:18:50.179Z,59.35
2022-11-02T20:21:19.217Z,64.25
2022-11-02T20:23:46.931Z,64.75
2022-11-02T20:26:19.857Z,68.47
2022-11-02T20:28:48.096Z,59.05
2022-11-02T20:31:23.550Z,60.13
2022-11-02T20:36:17.278Z,64.90
2022-11-02T20:38:44.602Z,64.90
2022-11-02T20:41:13.740Z,57.33
2022-11-02T20:43:42.413Z,58.08
2022-11-02T20:49:08.600Z,60.13
2022-11-02T20:51:47.565Z,61.63
2022-11-02T20:54:14.274Z,57.33
2022-11-02T20:56:41.110Z,63.85
2022-11-02T20:59:07.822Z,62.13
2022-11-02T21:01:35.443Z,60.10
2022-11-02T21:04:02.625Z,57.85
2022-11-02T21:06:29.616Z,57.45
2022-11-02T21:08:56.634Z,58.53
2022-11-02T21:11:41.646Z,53.50
2022-11-02T21:14:08.506Z,54.70
2022-11-02T21:16:35.212Z,63.83
2022-11-02T21:19:02.030Z,57.55
2022-11-02T21:21:29.019Z,55.13
2022-11-02T21:23:55.934Z,54.05
2022-11-02T21:26:22.626Z,59.80
2022-11-02T21:28:49.525Z,61.95
2022-11-02T21:31:21.462Z,60.97
2022-11-02T21:33:49.644Z,60.00
2022-11-02T21:36:17.583Z,60.83
2022-11-02T21:38:50.728Z,64.05
2022-11-02T21:41:20.543Z,62.90
2022-11-02T21:43:47.651Z,70.63
2022-11-02T21:46:14.425Z,60.40
2022-11-02T21:48:41.208Z,64.07
2022-11-02T21:51:17.528Z,61.97
2022-11-02T21:53:45.325Z,60.15
2022-11-02T21:56:17.537Z,60.65
2022-11-02T21:58:46.023Z,65.90
2022-11-02T22:01:34.633Z,65.55
2022-11-02T22:04:01.649Z,69.18
2022-11-02T22:06:31.550Z,68.75
2022-11-02T22:08:59.977Z,65.05
2022-11-02T22:11:27.338Z,65.57
2022-11-02T22:13:55.686Z,59.30
2022-11-02T22:16:28.454Z,73.78
2022-11-02T22:18:57.659Z,66.53
2022-11-02T22:21:26.601Z,67.82
2022-11-02T22:23:54.090Z,67.57
2022-11-02T22:26:23.176Z,69.40
2022-11-02T22:28:50.429Z,62.97
2022-11-02T22:31:25.704Z,60.70
2022-11-02T22:33:55.455Z,67.32
2022-11-02T22:36:25.263Z,70.03
2022-11-02T22:38:56.280Z,63.50
2022-11-02T22:41:28.421Z,66.40
2022-11-02T22:43:57.431Z,66.07
2022-11-02T22:46:26.265Z,69.90
2022-11-02T22:48:54.734Z,65.57
2022-11-02T22:51:23.285Z,64.63
2022-11-02T22:53:50.494Z,66.55
2022-11-02T22:56:19.784Z,62.15
2022-11-02T22:58:47.854Z,64.70
2022-11-02T23:01:17.466Z,68.18
2022-11-02T23:03:44.757Z,61.25
2022-11-02T23:06:12.538Z,66.97
2022-11-02T23:08:41.973Z,68.50
2022-11-02T23:11:22.296Z,70.45
2022-11-02T23:14:04.634Z,72.38
2022-11-02T23:16:33.917Z,72.22
2022-11-02T23:19:31.490Z,68.57
2022-11-02T23:22:18.761Z,68.75
2022-11-02T23:25:06.127Z,74.82
2022-11-02T23:27:56.196Z,68.82
2022-11-02T23:30:42.263Z,71.10
2022-11-02T23:33:09.544Z,67.63
2022-11-02T23:35:55.102Z,77.88
2022-11-02T23:38:21.922Z,70.10
2022-11-02T23:40:48.541Z,70.25
2022-11-02T23:43:15.168Z,71.47
2022-11-02T23:45:41.894Z,72.72
2022-11-02T23:48:09.200Z,69.88
2022-11-02T23:50:55.129Z,71.22
2022-11-02T23:53:42.214Z,72.10
2022-11-02T23:56:36.434Z,71.10
2022-11-02T23:59:06.545Z,70.82
